sensor_id;sensor_type;location;lat;lon;timestamp;P1;durP1;ratioP1;P2;durP2;ratioP2
19219;SDS011;9744;49.364;7.484;2023-09-30T00:00:57;7.32;;;2.30;;
19219;SDS011;9744;49.364;7.484;2023-09-30T00:03:24;5.00;;;2.08;;
19219;SDS011;9744;49.364;7.484;2023-09-30T00:05:52;7.00;;;2.42;;
19219;SDS011;9744;49.364;7.484;2023-09-30T00:08:20;3.28;;;1.90;;
19219;SDS011;9744;49.364;7.484;2023-09-30T00:10:47;5.93;;;1.90;;
19219;SDS011;9744;49.364;7.484;2023-09-30T00:13:14;4.72;;;1.83;;
19219;SDS011;9744;49.364;7.484;2023-09-30T00:15:41;6.40;;;1.70;;
19219;SDS011;9744;49.364;7.484;2023-09-30T00:18:09;3.25;;;1.50;;
19219;SDS011;9744;49.364;7.484;2023-09-30T00:20:36;6.18;;;2.30;;
19219;SDS011;9744;49.364;7.484;2023-09-30T00:23:04;4.22;;;1.70;;
19219;SDS011;9744;49.364;7.484;2023-09-30T00:25:32;2.90;;;1.45;;
19219;SDS011;9744;49.364;7.484;2023-09-30T00:27:59;2.88;;;1.55;;
19219;SDS011;9744;49.364;7.484;2023-09-30T00:30:28;2.90;;;1.30;;
19219;SDS011;9744;49.364;7.484;2023-09-30T00:32:55;2.85;;;1.60;;
19219;SDS011;9744;49.364;7.484;2023-09-30T00:35:22;5.35;;;1.48;;
19219;SDS011;9744;49.364;7.484;2023-09-30T00:37:50;7.60;;;4.07;;
19219;SDS011;9744;49.364;7.484;2023-09-30T00:40:18;7.53;;;3.35;;
19219;SDS011;9744;49.364;7.484;2023-09-30T00:42:46;7.32;;;2.97;;
19219;SDS011;9744;49.364;7.484;2023-09-30T00:45:13;5.97;;;2.42;;
19219;SDS011;9744;49.364;7.484;2023-09-30T00:47:40;5.25;;;2.30;;
19219;SDS011;9744;49.364;7.484;2023-09-30T00:50:08;4.68;;;2.25;;
19219;SDS011;9744;49.364;7.484;2023-09-30T00:52:38;4.10;;;2.22;;
19219;SDS011;9744;49.364;7.484;2023-09-30T00:55:05;3.80;;;2.00;;
19219;SDS011;9744;49.364;7.484;2023-09-30T00:57:37;3.25;;;1.60;;
19219;SDS011;9744;49.364;7.484;2023-09-30T01:00:05;3.13;;;1.83;;
19219;SDS011;9744;49.364;7.484;2023-09-30T01:02:37;4.45;;;2.15;;
19219;SDS011;9744;49.364;7.484;2023-09-30T01:05:06;4.22;;;1.88;;
19219;SDS011;9744;49.364;7.484;2023-09-30T01:07:34;8.35;;;2.28;;
19219;SDS011;9744;49.364;7.484;2023-09-30T01:10:02;6.68;;;2.63;;
19219;SDS011;9744;49.364;7.484;2023-09-30T01:12:30;7.22;;;2.60;;
19219;SDS011;9744;49.364;7.484;2023-09-30T01:14:58;4.28;;;3.08;;
19219;SDS011;9744;49.364;7.484;2023-09-30T01:17:26;7.28;;;3.50;;
19219;SDS011;9744;49.364;7.484;2023-09-30T01:19:54;5.70;;;3.45;;
19219;SDS011;9744;49.364;7.484;2023-09-30T01:22:25;7.13;;;3.97;;
19219;SDS011;9744;49.364;7.484;2023-09-30T01:24:55;6.10;;;3.05;;
19219;SDS011;9744;49.364;7.484;2023-09-30T01:27:22;5.85;;;3.78;;
19219;SDS011;9744;49.364;7.484;2023-09-30T01:29:50;6.47;;;3.53;;
19219;SDS011;9744;49.364;7.484;2023-09-30T01:32:18;9.35;;;3.75;;
19219;SDS011;9744;49.364;7.484;2023-09-30T01:34:45;7.25;;;3.63;;
19219;SDS011;9744;49.364;7.484;2023-09-30T01:37:12;7.35;;;4.25;;
19219;SDS011;9744;49.364;7.484;2023-09-30T01:39:40;9.13;;;4.45;;
19219;SDS011;9744;49.364;7.484;2023-09-30T01:42:09;10.00;;;4.18;;
19219;SDS011;9744;49.364;7.484;2023-09-30T01:44:36;9.52;;;4.68;;
19219;SDS011;9744;49.364;7.484;2023-09-30T01:47:04;9.43;;;4.65;;
19219;SDS011;9744;49.364;7.484;2023-09-30T01:49:31;7.88;;;4.40;;
19219;SDS011;9744;49.364;7.484;2023-09-30T01:51:59;10.30;;;4.75;;
19219;SDS011;9744;49.364;7.484;2023-09-30T01:54:26;12.10;;;5.32;;
19219;SDS011;9744;49.364;7.484;2023-09-30T01:56:54;6.63;;;4.55;;
19219;SDS011;9744;49.364;7.484;2023-09-30T01:59:24;9.23;;;4.93;;
19219;SDS011;9744;49.364;7.484;2023-09-30T02:01:51;9.23;;;4.75;;
19219;SDS011;9744;49.364;7.484;2023-09-30T02:04:18;7.88;;;5.47;;
19219;SDS011;9744;49.364;7.484;2023-09-30T02:06:45;7.55;;;3.30;;
19219;SDS011;9744;49.364;7.484;2023-09-30T02:09:12;13.85;;;6.07;;
19219;SDS011;9744;49.364;7.484;2023-09-30T02:11:40;8.32;;;5.40;;
19219;SDS011;9744;49.364;7.484;2023-09-30T02:14:09;9.95;;;5.47;;
19219;SDS011;9744;49.364;7.484;2023-09-30T02:16:39;6.10;;;4.05;;
19219;SDS011;9744;49.364;7.484;2023-09-30T02:19:06;10.05;;;5.28;;
19219;SDS011;9744;49.364;7.484;2023-09-30T02:21:36;6.65;;;4.40;;
19219;SDS011;9744;49.364;7.484;2023-09-30T02:24:03;8.90;;;5.43;;
19219;SDS011;9744;49.364;7.484;2023-09-30T02:26:32;9.75;;;5.68;;
19219;SDS011;9744;49.364;7.484;2023-09-30T02:29:00;7.95;;;3.83;;
19219;SDS011;9744;49.364;7.484;2023-09-30T02:31:29;9.07;;;4.90;;
19219;SDS011;9744;49.364;7.484;2023-09-30T02:33:56;9.05;;;5.03;;
19219;SDS011;9744;49.364;7.484;2023-09-30T02:36:23;12.57;;;6.07;;
19219;SDS011;9744;49.364;7.484;2023-09-30T02:38:52;9.57;;;5.03;;
19219;SDS011;9744;49.364;7.484;2023-09-30T02:41:20;9.35;;;5.70;;
19219;SDS011;9744;49.364;7.484;2023-09-30T02:43:48;9.52;;;5.53;;
19219;SDS011;9744;49.364;7.484;2023-09-30T02:46:15;5.70;;;3.38;;
19219;SDS011;9744;49.364;7.484;2023-09-30T02:48:44;5.22;;;3.42;;
19219;SDS011;9744;49.364;7.484;2023-09-30T02:51:11;5.07;;;3.42;;
19219;SDS011;9744;49.364;7.484;2023-09-30T02:53:38;5.88;;;3.00;;
19219;SDS011;9744;49.364;7.484;2023-09-30T02:56:05;6.93;;;3.15;;
19219;SDS011;9744;49.364;7.484;2023-09-30T02:58:32;9.13;;;3.53;;
19219;SDS011;9744;49.364;7.484;2023-09-30T03:00:59;6.88;;;3.72;;
19219;SDS011;9744;49.364;7.484;2023-09-30T03:03:27;10.38;;;5.05;;
19219;SDS011;9744;49.364;7.484;2023-09-30T03:05:55;10.40;;;5.20;;
19219;SDS011;9744;49.364;7.484;2023-09-30T03:08:23;6.90;;;4.20;;
19219;SDS011;9744;49.364;7.484;2023-09-30T03:10:51;7.28;;;4.65;;
19219;SDS011;9744;49.364;7.484;2023-09-30T03:13:18;7.13;;;4.13;;
19219;SDS011;9744;49.364;7.484;2023-09-30T03:15:46;5.30;;;3.75;;
19219;SDS011;9744;49.364;7.484;2023-09-30T03:18:15;6.95;;;4.05;;
19219;SDS011;9744;49.364;7.484;2023-09-30T03:20:47;6.75;;;3.75;;
19219;SDS011;9744;49.364;7.484;2023-09-30T03:23:17;7.28;;;3.30;;
19219;SDS011;9744;49.364;7.484;2023-09-30T03:25:45;7.65;;;3.10;;
19219;SDS011;9744;49.364;7.484;2023-09-30T03:28:12;4.82;;;2.53;;
19219;SDS011;9744;49.364;7.484;2023-09-30T03:30:40;6.03;;;3.35;;
19219;SDS011;9744;49.364;7.484;2023-09-30T03:33:07;4.50;;;3.05;;
19219;SDS011;9744;49.364;7.484;2023-09-30T03:35:34;5.30;;;3.30;;
19219;SDS011;9744;49.364;7.484;2023-09-30T03:38:02;6.25;;;3.25;;
19219;SDS011;9744;49.364;7.484;2023-09-30T03:40:31;5.32;;;3.13;;
19219;SDS011;9744;49.364;7.484;2023-09-30T03:42:59;6.28;;;2.92;;
19219;SDS011;9744;49.364;7.484;2023-09-30T03:45:27;6.40;;;2.53;;
19219;SDS011;9744;49.364;7.484;2023-09-30T03:47:54;8.25;;;3.13;;
19219;SDS011;9744;49.364;7.484;2023-09-30T03:50:21;5.97;;;2.63;;
19219;SDS011;9744;49.364;7.484;2023-09-30T03:52:49;6.45;;;2.72;;
19219;SDS011;9744;49.364;7.484;2023-09-30T03:55:17;4.20;;;2.20;;
19219;SDS011;9744;49.364;7.484;2023-09-30T03:57:47;6.93;;;2.30;;
19219;SDS011;9744;49.364;7.484;2023-09-30T04:00:16;4.35;;;2.30;;
19219;SDS011;9744;49.364;7.484;2023-09-30T04:02:44;7.13;;;2.28;;
19219;SDS011;9744;49.364;7.484;2023-09-30T04:05:14;4.28;;;2.28;;
19219;SDS011;9744;49.364;7.484;2023-09-30T04:07:42;6.50;;;2.60;;
19219;SDS011;9744;49.364;7.484;2023-09-30T04:10:10;6.13;;;2.67;;
19219;SDS011;9744;49.364;7.484;2023-09-30T04:12:37;4.90;;;2.20;;
19219;SDS011;9744;49.364;7.484;2023-09-30T04:15:07;7.63;;;2.33;;
19219;SDS011;9744;49.364;7.484;2023-09-30T04:17:37;6.45;;;2.78;;
19219;SDS011;9744;49.364;7.484;2023-09-30T04:20:06;3.75;;;2.30;;
19219;SDS011;9744;49.364;7.484;2023-09-30T04:22:36;4.45;;;2.53;;
19219;SDS011;9744;49.364;7.484;2023-09-30T04:25:03;5.80;;;2.42;;
19219;SDS011;9744;49.364;7.484;2023-09-30T04:27:34;4.32;;;2.15;;
19219;SDS011;9744;49.364;7.484;2023-09-30T04:30:02;5.15;;;2.30;;
19219;SDS011;9744;49.364;7.484;2023-09-30T04:32:35;5.95;;;2.92;;
19219;SDS011;9744;49.364;7.484;2023-09-30T04:35:04;3.92;;;2.45;;
19219;SDS011;9744;49.364;7.484;2023-09-30T04:37:33;5.47;;;2.63;;
19219;SDS011;9744;49.364;7.484;2023-09-30T04:40:01;4.97;;;2.30;;
19219;SDS011;9744;49.364;7.484;2023-09-30T04:42:33;5.97;;;2.80;;
19219;SDS011;9744;49.364;7.484;2023-09-30T04:45:02;5.60;;;2.80;;
19219;SDS011;9744;49.364;7.484;2023-09-30T04:47:32;3.70;;;2.60;;
19219;SDS011;9744;49.364;7.484;2023-09-30T04:50:00;4.57;;;2.42;;
19219;SDS011;9744;49.364;7.484;2023-09-30T04:52:30;4.35;;;2.20;;
19219;SDS011;9744;49.364;7.484;2023-09-30T04:54:58;6.55;;;2.88;;
19219;SDS011;9744;49.364;7.484;2023-09-30T04:57:25;5.22;;;2.53;;
19219;SDS011;9744;49.364;7.484;2023-09-30T04:59:53;5.72;;;2.50;;
19219;SDS011;9744;49.364;7.484;2023-09-30T05:02:20;3.28;;;2.33;;
19219;SDS011;9744;49.364;7.484;2023-09-30T05:04:48;7.85;;;2.67;;
19219;SDS011;9744;49.364;7.484;2023-09-30T05:07:16;6.32;;;2.55;;
19219;SDS011;9744;49.364;7.484;2023-09-30T05:09:43;5.63;;;2.90;;
19219;SDS011;9744;49.364;7.484;2023-09-30T05:12:11;5.75;;;2.90;;
19219;SDS011;9744;49.364;7.484;2023-09-30T05:14:38;6.75;;;3.17;;
19219;SDS011;9744;49.364;7.484;2023-09-30T05:17:05;7.32;;;3.30;;
19219;SDS011;9744;49.364;7.484;2023-09-30T05:19:33;135.35;;;5.05;;
19219;SDS011;9744;49.364;7.484;2023-09-30T05:22:02;82.30;;;2.85;;
19219;SDS011;9744;49.364;7.484;2023-09-30T05:24:31;104.45;;;3.33;;
19219;SDS011;9744;49.364;7.484;2023-09-30T05:27:00;82.18;;;2.90;;
19219;SDS011;9744;49.364;7.484;2023-09-30T05:29:28;138.35;;;4.13;;
19219;SDS011;9744;49.364;7.484;2023-09-30T05:31:59;57.03;;;3.75;;
19219;SDS011;9744;49.364;7.484;2023-09-30T05:34:27;115.70;;;5.25;;
19219;SDS011;9744;49.364;7.484;2023-09-30T05:36:55;121.10;;;6.07;;
19219;SDS011;9744;49.364;7.484;2023-09-30T05:39:24;64.30;;;4.93;;
19219;SDS011;9744;49.364;7.484;2023-09-30T05:41:53;18.73;;;5.15;;
19219;SDS011;9744;49.364;7.484;2023-09-30T05:44:20;87.25;;;6.95;;
19219;SDS011;9744;49.364;7.484;2023-09-30T05:46:48;41.53;;;5.90;;
19219;SDS011;9744;49.364;7.484;2023-09-30T05:49:16;10.80;;;6.35;;
19219;SDS011;9744;49.364;7.484;2023-09-30T05:51:44;9.35;;;7.05;;
19219;SDS011;9744;49.364;7.484;2023-09-30T05:54:12;10.50;;;8.00;;
19219;SDS011;9744;49.364;7.484;2023-09-30T05:56:39;11.73;;;8.13;;
19219;SDS011;9744;49.364;7.484;2023-09-30T05:59:09;9.68;;;7.03;;
19219;SDS011;9744;49.364;7.484;2023-09-30T06:01:37;10.13;;;7.72;;
19219;SDS011;9744;49.364;7.484;2023-09-30T06:04:05;10.00;;;7.32;;
19219;SDS011;9744;49.364;7.484;2023-09-30T06:06:32;12.05;;;8.27;;
19219;SDS011;9744;49.364;7.484;2023-09-30T06:08:59;8.90;;;6.45;;
19219;SDS011;9744;49.364;7.484;2023-09-30T06:11:26;8.32;;;5.88;;
19219;SDS011;9744;49.364;7.484;2023-09-30T06:13:54;7.28;;;4.80;;
19219;SDS011;9744;49.364;7.484;2023-09-30T06:16:25;6.05;;;5.38;;
19219;SDS011;9744;49.364;7.484;2023-09-30T06:18:54;7.63;;;6.03;;
19219;SDS011;9744;49.364;7.484;2023-09-30T06:21:24;7.65;;;6.07;;
19219;SDS011;9744;49.364;7.484;2023-09-30T06:23:54;17.60;;;6.95;;
19219;SDS011;9744;49.364;7.484;2023-09-30T06:26:21;25.80;;;6.18;;
19219;SDS011;9744;49.364;7.484;2023-09-30T06:28:50;5.47;;;4.97;;
19219;SDS011;9744;49.364;7.484;2023-09-30T06:31:19;6.22;;;4.75;;
19219;SDS011;9744;49.364;7.484;2023-09-30T06:33:49;13.63;;;6.32;;
19219;SDS011;9744;49.364;7.484;2023-09-30T06:36:16;8.38;;;5.43;;
19219;SDS011;9744;49.364;7.484;2023-09-30T06:38:44;69.25;;;7.40;;
19219;SDS011;9744;49.364;7.484;2023-09-30T06:41:16;24.02;;;6.60;;
19219;SDS011;9744;49.364;7.484;2023-09-30T06:43:44;112.10;;;8.52;;
19219;SDS011;9744;49.364;7.484;2023-09-30T06:46:12;17.33;;;11.43;;
19219;SDS011;9744;49.364;7.484;2023-09-30T06:48:39;10.82;;;8.13;;
19219;SDS011;9744;49.364;7.484;2023-09-30T06:51:12;10.73;;;7.63;;
19219;SDS011;9744;49.364;7.484;2023-09-30T06:53:41;9.55;;;7.30;;
19219;SDS011;9744;49.364;7.484;2023-09-30T06:56:08;10.50;;;7.93;;
19219;SDS011;9744;49.364;7.484;2023-09-30T06:58:35;12.27;;;7.13;;
19219;SDS011;9744;49.364;7.484;2023-09-30T07:01:03;12.13;;;9.10;;
19219;SDS011;9744;49.364;7.484;2023-09-30T07:03:31;8.38;;;6.72;;
19219;SDS011;9744;49.364;7.484;2023-09-30T07:06:00;9.48;;;7.22;;
19219;SDS011;9744;49.364;7.484;2023-09-30T07:08:28;9.85;;;7.53;;
19219;SDS011;9744;49.364;7.484;2023-09-30T07:10:56;11.88;;;7.80;;
19219;SDS011;9744;49.364;7.484;2023-09-30T07:13:23;10.13;;;7.55;;
19219;SDS011;9744;49.364;7.484;2023-09-30T07:15:50;11.02;;;7.10;;
19219;SDS011;9744;49.364;7.484;2023-09-30T07:18:18;6.90;;;5.20;;
19219;SDS011;9744;49.364;7.484;2023-09-30T07:20:45;5.40;;;4.68;;
19219;SDS011;9744;49.364;7.484;2023-09-30T07:23:12;5.72;;;4.45;;
19219;SDS011;9744;49.364;7.484;2023-09-30T07:25:41;5.00;;;4.50;;
19219;SDS011;9744;49.364;7.484;2023-09-30T07:28:09;5.35;;;4.55;;
19219;SDS011;9744;49.364;7.484;2023-09-30T07:30:37;5.18;;;4.25;;
19219;SDS011;9744;49.364;7.484;2023-09-30T07:33:05;5.05;;;3.97;;
19219;SDS011;9744;49.364;7.484;2023-09-30T07:35:33;5.50;;;4.10;;
19219;SDS011;9744;49.364;7.484;2023-09-30T07:38:00;3.47;;;3.17;;
19219;SDS011;9744;49.364;7.484;2023-09-30T07:40:30;3.42;;;3.03;;
19219;SDS011;9744;49.364;7.484;2023-09-30T07:42:59;4.22;;;3.42;;
19219;SDS011;9744;49.364;7.484;2023-09-30T07:45:26;3.88;;;3.08;;
19219;SDS011;9744;49.364;7.484;2023-09-30T07:47:53;3.80;;;3.08;;
19219;SDS011;9744;49.364;7.484;2023-09-30T07:50:21;3.83;;;3.45;;
19219;SDS011;9744;49.364;7.484;2023-09-30T07:52:48;4.35;;;3.70;;
19219;SDS011;9744;49.364;7.484;2023-09-30T07:55:15;6.75;;;5.07;;
19219;SDS011;9744;49.364;7.484;2023-09-30T07:57:43;5.00;;;3.53;;
19219;SDS011;9744;49.364;7.484;2023-09-30T08:00:13;5.28;;;4.18;;
19219;SDS011;9744;49.364;7.484;2023-09-30T08:02:46;9.30;;;6.30;;
19219;SDS011;9744;49.364;7.484;2023-09-30T08:05:14;11.10;;;6.68;;
19219;SDS011;9744;49.364;7.484;2023-09-30T08:07:41;8.00;;;6.18;;
19219;SDS011;9744;49.364;7.484;2023-09-30T08:10:08;7.35;;;5.88;;
19219;SDS011;9744;49.364;7.484;2023-09-30T08:12:38;7.25;;;5.30;;
19219;SDS011;9744;49.364;7.484;2023-09-30T08:15:06;7.30;;;5.63;;
19219;SDS011;9744;49.364;7.484;2023-09-30T08:17:38;5.65;;;4.85;;
19219;SDS011;9744;49.364;7.484;2023-09-30T08:20:06;7.88;;;5.75;;
19219;SDS011;9744;49.364;7.484;2023-09-30T08:22:35;9.40;;;6.30;;
19219;SDS011;9744;49.364;7.484;2023-09-30T08:25:05;7.10;;;5.75;;
19219;SDS011;9744;49.364;7.484;2023-09-30T08:27:33;8.90;;;6.10;;
19219;SDS011;9744;49.364;7.484;2023-09-30T08:30:02;8.00;;;5.60;;
19219;SDS011;9744;49.364;7.484;2023-09-30T08:32:32;9.35;;;5.55;;
19219;SDS011;9744;49.364;7.484;2023-09-30T08:35:02;8.70;;;5.45;;
19219;SDS011;9744;49.364;7.484;2023-09-30T08:37:30;8.40;;;5.78;;
19219;SDS011;9744;49.364;7.484;2023-09-30T08:39:59;6.68;;;5.35;;
19219;SDS011;9744;49.364;7.484;2023-09-30T08:42:26;6.32;;;4.40;;
19219;SDS011;9744;49.364;7.484;2023-09-30T08:44:58;10.05;;;6.05;;
19219;SDS011;9744;49.364;7.484;2023-09-30T08:47:26;9.05;;;5.05;;
19219;SDS011;9744;49.364;7.484;2023-09-30T08:49:54;7.82;;;5.05;;
19219;SDS011;9744;49.364;7.484;2023-09-30T08:52:28;6.70;;;4.53;;
19219;SDS011;9744;49.364;7.484;2023-09-30T08:54:56;7.05;;;4.95;;
19219;SDS011;9744;49.364;7.484;2023-09-30T08:57:23;6.63;;;4.85;;
19219;SDS011;9744;49.364;7.484;2023-09-30T08:59:51;6.55;;;4.68;;
19219;SDS011;9744;49.364;7.484;2023-09-30T09:02:20;9.43;;;4.93;;
19219;SDS011;9744;49.364;7.484;2023-09-30T09:04:47;8.90;;;4.97;;
19219;SDS011;9744;49.364;7.484;2023-09-30T09:07:16;7.72;;;4.30;;
19219;SDS011;9744;49.364;7.484;2023-09-30T09:09:52;12.02;;;5.22;;
19219;SDS011;9744;49.364;7.484;2023-09-30T09:12:30;8.27;;;5.00;;
19219;SDS011;9744;49.364;7.484;2023-09-30T09:14:58;6.90;;;4.78;;
19219;SDS011;9744;49.364;7.484;2023-09-30T09:17:25;7.65;;;5.60;;
19219;SDS011;9744;49.364;7.484;2023-09-30T09:20:07;10.48;;;5.40;;
19219;SDS011;9744;49.364;7.484;2023-09-30T09:22:40;8.30;;;5.57;;
19219;SDS011;9744;49.364;7.484;2023-09-30T09:25:09;6.28;;;4.07;;
19219;SDS011;9744;49.364;7.484;2023-09-30T09:27:37;9.35;;;5.40;;
19219;SDS011;9744;49.364;7.484;2023-09-30T09:30:18;7.18;;;4.03;;
19219;SDS011;9744;49.364;7.484;2023-09-30T09:32:58;7.85;;;4.65;;
19219;SDS011;9744;49.364;7.484;2023-09-30T09:35:26;8.88;;;4.93;;
19219;SDS011;9744;49.364;7.484;2023-09-30T09:37:59;5.82;;;3.85;;
19219;SDS011;9744;49.364;7.484;2023-09-30T09:40:29;8.05;;;3.80;;
19219;SDS011;9744;49.364;7.484;2023-09-30T09:42:57;8.98;;;4.32;;
19219;SDS011;9744;49.364;7.484;2023-09-30T09:45:27;7.65;;;4.47;;
19219;SDS011;9744;49.364;7.484;2023-09-30T09:48:00;6.93;;;4.10;;
19219;SDS011;9744;49.364;7.484;2023-09-30T09:50:29;5.18;;;3.55;;
19219;SDS011;9744;49.364;7.484;2023-09-30T09:52:58;12.98;;;6.97;;
19219;SDS011;9744;49.364;7.484;2023-09-30T09:55:26;7.30;;;4.55;;
19219;SDS011;9744;49.364;7.484;2023-09-30T09:57:55;7.88;;;4.93;;
19219;SDS011;9744;49.364;7.484;2023-09-30T10:00:24;6.95;;;4.72;;
19219;SDS011;9744;49.364;7.484;2023-09-30T10:02:52;6.55;;;4.28;;
19219;SDS011;9744;49.364;7.484;2023-09-30T10:05:20;6.60;;;4.00;;
19219;SDS011;9744;49.364;7.484;2023-09-30T10:07:51;9.25;;;3.72;;
19219;SDS011;9744;49.364;7.484;2023-09-30T10:10:21;7.15;;;3.53;;
19219;SDS011;9744;49.364;7.484;2023-09-30T10:12:51;5.30;;;2.85;;
19219;SDS011;9744;49.364;7.484;2023-09-30T10:15:35;6.03;;;3.45;;
19219;SDS011;9744;49.364;7.484;2023-09-30T10:18:05;6.88;;;3.28;;
19219;SDS011;9744;49.364;7.484;2023-09-30T10:20:35;7.93;;;3.15;;
19219;SDS011;9744;49.364;7.484;2023-09-30T10:23:23;7.57;;;3.60;;
19219;SDS011;9744;49.364;7.484;2023-09-30T10:25:53;7.68;;;3.25;;
19219;SDS011;9744;49.364;7.484;2023-09-30T10:28:37;11.85;;;6.72;;
19219;SDS011;9744;49.364;7.484;2023-09-30T10:31:10;8.85;;;3.42;;
19219;SDS011;9744;49.364;7.484;2023-09-30T10:36:38;10.75;;;4.00;;
19219;SDS011;9744;49.364;7.484;2023-09-30T10:39:11;11.45;;;5.10;;
19219;SDS011;9744;49.364;7.484;2023-09-30T10:41:49;9.73;;;3.80;;
19219;SDS011;9744;49.364;7.484;2023-09-30T10:44:34;9.80;;;4.07;;
19219;SDS011;9744;49.364;7.484;2023-09-30T10:50:03;9.00;;;4.35;;
19219;SDS011;9744;49.364;7.484;2023-09-30T10:53:12;12.02;;;4.75;;
19219;SDS011;9744;49.364;7.484;2023-09-30T10:55:40;13.32;;;5.65;;
19219;SDS011;9744;49.364;7.484;2023-09-30T10:58:07;10.25;;;4.95;;
19219;SDS011;9744;49.364;7.484;2023-09-30T11:00:35;9.82;;;4.55;;
19219;SDS011;9744;49.364;7.484;2023-09-30T11:03:04;12.50;;;4.32;;
19219;SDS011;9744;49.364;7.484;2023-09-30T11:05:31;9.90;;;3.67;;
19219;SDS011;9744;49.364;7.484;2023-09-30T11:07:59;10.55;;;3.88;;
19219;SDS011;9744;49.364;7.484;2023-09-30T11:10:31;8.93;;;3.65;;
19219;SDS011;9744;49.364;7.484;2023-09-30T11:12:58;13.73;;;5.40;;
19219;SDS011;9744;49.364;7.484;2023-09-30T11:15:26;10.93;;;4.85;;
19219;SDS011;9744;49.364;7.484;2023-09-30T11:18:12;9.13;;;4.00;;
19219;SDS011;9744;49.364;7.484;2023-09-30T11:20:40;10.52;;;4.25;;
19219;SDS011;9744;49.364;7.484;2023-09-30T11:23:09;11.68;;;5.57;;
19219;SDS011;9744;49.364;7.484;2023-09-30T11:25:38;12.07;;;4.97;;
19219;SDS011;9744;49.364;7.484;2023-09-30T11:28:13;12.20;;;5.45;;
19219;SDS011;9744;49.364;7.484;2023-09-30T11:30:54;12.95;;;4.82;;
19219;SDS011;9744;49.364;7.484;2023-09-30T11:33:22;13.68;;;4.50;;
19219;SDS011;9744;49.364;7.484;2023-09-30T11:35:56;14.68;;;6.20;;
19219;SDS011;9744;49.364;7.484;2023-09-30T11:38:26;13.35;;;4.93;;
19219;SDS011;9744;49.364;7.484;2023-09-30T11:41:02;10.98;;;4.97;;
19219;SDS011;9744;49.364;7.484;2023-09-30T11:43:32;13.85;;;5.03;;
19219;SDS011;9744;49.364;7.484;2023-09-30T11:46:06;13.70;;;5.18;;
19219;SDS011;9744;49.364;7.484;2023-09-30T11:48:34;9.88;;;4.93;;
19219;SDS011;9744;49.364;7.484;2023-09-30T11:51:02;10.73;;;4.78;;
19219;SDS011;9744;49.364;7.484;2023-09-30T11:53:30;11.57;;;5.10;;
19219;SDS011;9744;49.364;7.484;2023-09-30T11:55:58;10.38;;;4.95;;
19219;SDS011;9744;49.364;7.484;2023-09-30T11:58:29;10.75;;;5.13;;
19219;SDS011;9744;49.364;7.484;2023-09-30T12:00:57;13.50;;;5.40;;
19219;SDS011;9744;49.364;7.484;2023-09-30T12:03:26;13.93;;;5.75;;
19219;SDS011;9744;49.364;7.484;2023-09-30T12:05:53;9.88;;;4.97;;
19219;SDS011;9744;49.364;7.484;2023-09-30T12:08:21;12.88;;;5.60;;
19219;SDS011;9744;49.364;7.484;2023-09-30T12:10:49;11.32;;;5.30;;
19219;SDS011;9744;49.364;7.484;2023-09-30T12:13:16;12.02;;;5.15;;
19219;SDS011;9744;49.364;7.484;2023-09-30T12:15:45;14.30;;;5.70;;
19219;SDS011;9744;49.364;7.484;2023-09-30T12:18:12;11.55;;;4.85;;
19219;SDS011;9744;49.364;7.484;2023-09-30T12:20:42;54.70;;;7.90;;
19219;SDS011;9744;49.364;7.484;2023-09-30T12:23:09;16.88;;;5.70;;
19219;SDS011;9744;49.364;7.484;2023-09-30T12:25:37;11.55;;;5.05;;
19219;SDS011;9744;49.364;7.484;2023-09-30T12:28:04;12.82;;;5.07;;
19219;SDS011;9744;49.364;7.484;2023-09-30T12:30:31;8.38;;;4.32;;
19219;SDS011;9744;49.364;7.484;2023-09-30T12:33:00;11.20;;;4.50;;
19219;SDS011;9744;49.364;7.484;2023-09-30T12:35:28;8.90;;;4.30;;
19219;SDS011;9744;49.364;7.484;2023-09-30T12:37:55;9.40;;;4.10;;
19219;SDS011;9744;49.364;7.484;2023-09-30T12:40:23;8.00;;;3.90;;
19219;SDS011;9744;49.364;7.484;2023-09-30T12:42:51;9.82;;;4.13;;
19219;SDS011;9744;49.364;7.484;2023-09-30T12:45:18;9.48;;;4.63;;
19219;SDS011;9744;49.364;7.484;2023-09-30T12:47:45;9.38;;;4.20;;
19219;SDS011;9744;49.364;7.484;2023-09-30T12:50:14;8.70;;;4.40;;
19219;SDS011;9744;49.364;7.484;2023-09-30T12:52:42;11.18;;;4.35;;
19219;SDS011;9744;49.364;7.484;2023-09-30T12:55:09;12.75;;;4.80;;
19219;SDS011;9744;49.364;7.484;2023-09-30T12:57:37;10.50;;;4.65;;
19219;SDS011;9744;49.364;7.484;2023-09-30T13:00:05;10.10;;;4.53;;
19219;SDS011;9744;49.364;7.484;2023-09-30T13:02:35;11.98;;;4.95;;
19219;SDS011;9744;49.364;7.484;2023-09-30T13:05:03;9.75;;;4.20;;
19219;SDS011;9744;49.364;7.484;2023-09-30T13:07:33;11.30;;;5.45;;
19219;SDS011;9744;49.364;7.484;2023-09-30T13:10:00;10.85;;;4.97;;
19219;SDS011;9744;49.364;7.484;2023-09-30T13:12:30;15.55;;;5.60;;
19219;SDS011;9744;49.364;7.484;2023-09-30T13:14:59;10.18;;;5.03;;
19219;SDS011;9744;49.364;7.484;2023-09-30T13:17:26;10.75;;;5.55;;
19219;SDS011;9744;49.364;7.484;2023-09-30T13:19:54;15.23;;;5.75;;
19219;SDS011;9744;49.364;7.484;2023-09-30T13:22:21;11.43;;;4.72;;
19219;SDS011;9744;49.364;7.484;2023-09-30T13:24:50;11.90;;;5.18;;
19219;SDS011;9744;49.364;7.484;2023-09-30T13:27:18;14.43;;;5.32;;
19219;SDS011;9744;49.364;7.484;2023-09-30T13:29:46;12.32;;;5.40;;
19219;SDS011;9744;49.364;7.484;2023-09-30T13:32:13;11.60;;;4.93;;
19219;SDS011;9744;49.364;7.484;2023-09-30T13:34:40;10.80;;;4.30;;
19219;SDS011;9744;49.364;7.484;2023-09-30T13:37:08;11.95;;;4.43;;
19219;SDS011;9744;49.364;7.484;2023-09-30T13:39:35;10.52;;;5.03;;
19219;SDS011;9744;49.364;7.484;2023-09-30T13:42:05;10.27;;;5.13;;
19219;SDS011;9744;49.364;7.484;2023-09-30T13:44:33;8.50;;;4.25;;
19219;SDS011;9744;49.364;7.484;2023-09-30T13:47:01;10.93;;;5.15;;
19219;SDS011;9744;49.364;7.484;2023-09-30T13:49:30;10.32;;;4.70;;
19219;SDS011;9744;49.364;7.484;2023-09-30T13:51:59;11.45;;;4.50;;
19219;SDS011;9744;49.364;7.484;2023-09-30T13:54:27;8.75;;;4.50;;
19219;SDS011;9744;49.364;7.484;2023-09-30T13:56:54;9.80;;;4.57;;
19219;SDS011;9744;49.364;7.484;2023-09-30T13:59:24;10.55;;;4.72;;
19219;SDS011;9744;49.364;7.484;2023-09-30T14:01:53;9.98;;;4.53;;
19219;SDS011;9744;49.364;7.484;2023-09-30T14:04:20;13.68;;;4.63;;
19219;SDS011;9744;49.364;7.484;2023-09-30T14:06:47;9.55;;;4.63;;
19219;SDS011;9744;49.364;7.484;2023-09-30T14:09:15;10.02;;;4.65;;
19219;SDS011;9744;49.364;7.484;2023-09-30T14:11:43;12.10;;;5.18;;
19219;SDS011;9744;49.364;7.484;2023-09-30T14:14:11;11.63;;;5.15;;
19219;SDS011;9744;49.364;7.484;2023-09-30T14:16:39;9.50;;;4.60;;
19219;SDS011;9744;49.364;7.484;2023-09-30T14:19:07;11.13;;;4.65;;
19219;SDS011;9744;49.364;7.484;2023-09-30T14:21:34;9.48;;;4.65;;
19219;SDS011;9744;49.364;7.484;2023-09-30T14:24:01;12.43;;;5.22;;
19219;SDS011;9744;49.364;7.484;2023-09-30T14:26:28;13.85;;;5.68;;
19219;SDS011;9744;49.364;7.484;2023-09-30T14:28:57;14.15;;;5.05;;
19219;SDS011;9744;49.364;7.484;2023-09-30T14:31:24;10.90;;;4.72;;
19219;SDS011;9744;49.364;7.484;2023-09-30T14:33:53;11.23;;;4.72;;
19219;SDS011;9744;49.364;7.484;2023-09-30T14:36:20;9.57;;;4.50;;
19219;SDS011;9744;49.364;7.484;2023-09-30T14:38:48;10.85;;;5.13;;
19219;SDS011;9744;49.364;7.484;2023-09-30T14:41:15;15.07;;;5.13;;
19219;SDS011;9744;49.364;7.484;2023-09-30T14:43:43;11.27;;;5.18;;
19219;SDS011;9744;49.364;7.484;2023-09-30T14:46:10;14.60;;;5.03;;
19219;SDS011;9744;49.364;7.484;2023-09-30T14:48:38;11.70;;;5.13;;
19219;SDS011;9744;49.364;7.484;2023-09-30T14:51:08;11.40;;;5.22;;
19219;SDS011;9744;49.364;7.484;2023-09-30T14:53:35;11.48;;;5.25;;
19219;SDS011;9744;49.364;7.484;2023-09-30T14:56:02;9.93;;;4.75;;
19219;SDS011;9744;49.364;7.484;2023-09-30T14:58:31;11.88;;;5.15;;
19219;SDS011;9744;49.364;7.484;2023-09-30T15:00:59;10.65;;;4.85;;
19219;SDS011;9744;49.364;7.484;2023-09-30T15:03:26;12.43;;;4.88;;
19219;SDS011;9744;49.364;7.484;2023-09-30T15:05:58;9.20;;;4.75;;
19219;SDS011;9744;49.364;7.484;2023-09-30T15:08:28;11.98;;;4.60;;
19219;SDS011;9744;49.364;7.484;2023-09-30T15:10:57;10.40;;;4.75;;